Time;durP1;ratioP1;P1;durP2;ratioP2;P2;SDS_P1;SDS_P2;PMS_P1;PMS_P2;Temp;Humidity;BMP_temperature;BMP_pressure;BME280_temperature;BME280_humidity;BME280_pressure;Samples;Min_cycle;Max_cycle;Signal;HPM_P1;HPM_P2
2022/09/18 00:00:37;;;;;;;9.65;1.75;;;;;;;;;;5023394;28;20224;-69
2022/09/18 00:03:03;;;;;;;10.00;1.42;;;;;;;;;;5024186;28;20392;-68
2022/09/18 00:05:28;;;;;;;6.85;1.55;;;;;;;;;;5010866;28;20228;-68
2022/09/18 00:07:53;;;;;;;8.43;1.80;;;;;;;;;;4998197;28;20219;-68
2022/09/18 00:10:18;;;;;;;10.05;1.90;;;;;;;;;;4998678;28;20603;-68
2022/09/18 00:12:44;;;;;;;8.50;1.80;;;;;;;;;;5005544;28;20683;-69
2022/09/18 00:15:09;;;;;;;9.73;1.63;;;;;;;;;;5023684;28;20219;-68
2022/09/18 00:17:34;;;;;;;7.53;1.80;;;;;;;;;;5006179;28;20200;-69
2022/09/18 00:20:00;;;;;;;9.10;1.80;;;;;;;;;;5005633;28;20739;-68
2022/09/18 00:22:25;;;;;;;10.00;1.60;;;;;;;;;;5005484;28;20280;-69
2022/09/18 00:24:50;;;;;;;10.15;2.03;;;;;;;;;;5005454;28;20235;-68
2022/09/18 00:27:16;;;;;;;8.18;1.55;;;;;;;;;;5019280;28;20729;-69
2022/09/18 00:29:41;;;;;;;7.20;1.42;;;;;;;;;;5017275;28;20605;-68
2022/09/18 00:32:06;;;;;;;13.40;1.90;;;;;;;;;;5000777;28;20354;-68
2022/09/18 00:34:31;;;;;;;11.07;1.63;;;;;;;;;;5003648;28;20208;-67
2022/09/18 00:36:57;;;;;;;8.85;1.83;;;;;;;;;;5004573;28;20691;-68
2022/09/18 00:39:22;;;;;;;10.13;1.63;;;;;;;;;;5023694;28;20265;-69
2022/09/18 00:41:48;;;;;;;10.25;1.80;;;;;;;;;;5025463;28;20219;-68
2022/09/18 00:44:23;;;;;;;10.20;2.20;;;;;;;;;;5024230;28;20598;-68
2022/09/18 00:46:48;;;;;;;10.88;1.65;;;;;;;;;;5039428;28;20294;-68
2022/09/18 00:49:15;;;;;;;8.50;1.58;;;;;;;;;;5021028;28;20448;-69
2022/09/18 00:51:41;;;;;;;6.53;1.50;;;;;;;;;;5027917;28;20390;-68
2022/09/18 00:54:09;;;;;;;8.93;2.15;;;;;;;;;;5011628;28;20732;-68
2022/09/18 00:56:34;;;;;;;10.00;1.67;;;;;;;;;;5018053;28;20561;-68
2022/09/18 00:59:00;;;;;;;11.98;2.00;;;;;;;;;;5020668;28;20219;-67
2022/09/18 01:01:25;;;;;;;8.98;1.80;;;;;;;;;;5019020;28;20216;-68
2022/09/18 01:03:50;;;;;;;8.88;1.67;;;;;;;;;;5005411;28;20574;-68
2022/09/18 01:06:20;;;;;;;10.18;1.73;;;;;;;;;;5019896;28;20219;-67
2022/09/18 01:08:49;;;;;;;10.48;2.47;;;;;;;;;;5038949;28;20219;-67
2022/09/18 01:11:19;;;;;;;8.50;1.48;;;;;;;;;;5037945;28;20299;-67
2022/09/18 01:13:53;;;;;;;9.80;1.83;;;;;;;;;;5032201;28;20215;-68
2022/09/18 01:16:21;;;;;;;9.73;1.73;;;;;;;;;;5014568;28;20765;-67
2022/09/18 01:19:16;;;;;;;9.13;1.58;;;;;;;;;;4999520;28;20212;-68
2022/09/18 01:21:43;;;;;;;9.05;2.00;;;;;;;;;;5023506;28;20784;-68
2022/09/18 01:24:08;;;;;;;13.20;2.67;;;;;;;;;;5039050;28;20258;-67
2022/09/18 01:26:42;;;;;;;9.77;1.40;;;;;;;;;;5024067;28;20682;-68
2022/09/18 01:29:10;;;;;;;7.45;1.48;;;;;;;;;;5023246;28;20239;-67
2022/09/18 01:31:37;;;;;;;7.13;1.45;;;;;;;;;;5039102;28;20214;-67
2022/09/18 01:34:12;;;;;;;9.43;1.70;;;;;;;;;;5021628;28;20224;-67
2022/09/18 01:36:37;;;;;;;7.65;1.50;;;;;;;;;;5031498;28;20788;-67
2022/09/18 01:39:06;;;;;;;9.00;1.63;;;;;;;;;;5015098;28;20216;-67
2022/09/18 01:41:31;;;;;;;11.65;1.70;;;;;;;;;;5033193;28;20216;-68
2022/09/18 01:43:59;;;;;;;8.55;1.90;;;;;;;;;;5038323;28;20598;-68
2022/09/18 01:46:24;;;;;;;10.00;1.42;;;;;;;;;;5038574;28;20273;-68
2022/09/18 01:48:52;;;;;;;10.73;1.60;;;;;;;;;;5023409;28;20303;-68
2022/09/18 01:51:19;;;;;;;9.00;1.38;;;;;;;;;;5021145;28;20574;-67
2022/09/18 01:53:46;;;;;;;7.00;1.60;;;;;;;;;;5038910;28;20220;-68
2022/09/18 01:56:14;;;;;;;8.52;1.42;;;;;;;;;;5037526;28;20216;-68
2022/09/18 01:58:39;;;;;;;8.70;1.95;;;;;;;;;;4996974;28;20263;-67
2022/09/18 02:01:08;;;;;;;8.07;1.50;;;;;;;;;;5010833;28;20610;-67
2022/09/18 02:03:34;;;;;;;8.57;1.60;;;;;;;;;;5030254;28;20222;-67
2022/09/18 02:06:02;;;;;;;11.35;1.60;;;;;;;;;;5010449;28;20655;-67
2022/09/18 02:08:31;;;;;;;10.30;1.90;;;;;;;;;;5038331;28;20561;-67
2022/09/18 02:11:05;;;;;;;9.35;1.73;;;;;;;;;;5022915;28;20306;-67
2022/09/18 02:13:33;;;;;;;9.90;1.55;;;;;;;;;;5038449;28;20274;-67
2022/09/18 02:15:59;;;;;;;9.85;2.10;;;;;;;;;;5010722;28;20251;-66
2022/09/18 02:18:26;;;;;;;9.52;1.67;;;;;;;;;;5017400;28;20604;-67
2022/09/18 02:20:51;;;;;;;11.18;1.60;;;;;;;;;;5031348;28;20633;-66
2022/09/18 02:23:16;;;;;;;9.07;1.80;;;;;;;;;;5030083;28;20242;-66
2022/09/18 02:25:42;;;;;;;10.95;1.60;;;;;;;;;;5014479;28;20224;-66
2022/09/18 02:28:08;;;;;;;10.50;1.33;;;;;;;;;;5036979;28;20215;-66
2022/09/18 02:30:33;;;;;;;8.93;1.88;;;;;;;;;;5038249;28;20216;-65
2022/09/18 02:32:58;;;;;;;7.97;1.50;;;;;;;;;;5022000;28;20222;-65
2022/09/18 02:35:24;;;;;;;6.65;1.27;;;;;;;;;;5003173;28;20208;-65
2022/09/18 02:37:50;;;;;;;7.30;1.38;;;;;;;;;;5003874;28;20231;-65
2022/09/18 02:40:33;;;;;;;8.30;1.77;;;;;;;;;;5002319;28;20225;-65
2022/09/18 02:43:14;;;;;;;7.72;1.30;;;;;;;;;;5017245;28;20281;-65
2022/09/18 02:45:42;;;;;;;7.47;1.50;;;;;;;;;;5013541;28;20220;-65
2022/09/18 02:48:11;;;;;;;10.35;1.67;;;;;;;;;;5014411;28;20227;-65
2022/09/18 02:50:40;;;;;;;7.90;1.40;;;;;;;;;;5021834;28;20215;-65
2022/09/18 02:53:11;;;;;;;8.70;1.20;;;;;;;;;;5005191;28;20239;-65
2022/09/18 02:55:40;;;;;;;9.95;1.70;;;;;;;;;;5037613;28;20220;-65
2022/09/18 02:58:07;;;;;;;8.30;1.63;;;;;;;;;;5007581;28;20243;-65
2022/09/18 03:00:32;;;;;;;7.38;1.38;;;;;;;;;;5036201;28;20212;-65
2022/09/18 03:02:58;;;;;;;8.68;1.38;;;;;;;;;;5022790;28;20196;-65
2022/09/18 03:05:23;;;;;;;7.93;1.20;;;;;;;;;;5008418;28;20702;-64
2022/09/18 03:07:49;;;;;;;6.55;1.48;;;;;;;;;;5013680;28;20250;-63
2022/09/18 03:10:14;;;;;;;7.80;1.70;;;;;;;;;;5013810;28;20204;-64
2022/09/18 03:12:39;;;;;;;7.40;1.55;;;;;;;;;;5019617;28;20221;-64
2022/09/18 03:15:05;;;;;;;11.48;1.88;;;;;;;;;;5015672;28;20258;-64
2022/09/18 03:17:30;;;;;;;12.10;1.30;;;;;;;;;;5018179;28;20675;-64
2022/09/18 03:19:55;;;;;;;7.95;1.58;;;;;;;;;;5003153;28;20219;-64
2022/09/18 03:22:20;;;;;;;10.88;1.63;;;;;;;;;;5002038;28;20220;-64
2022/09/18 03:24:46;;;;;;;8.68;1.80;;;;;;;;;;5017496;28;20224;-64
2022/09/18 03:27:11;;;;;;;8.88;1.60;;;;;;;;;;5019120;28;20266;-65
2022/09/18 03:29:36;;;;;;;6.93;1.40;;;;;;;;;;5014232;28;20211;-65
2022/09/18 03:32:02;;;;;;;9.73;2.22;;;;;;;;;;4994581;28;20649;-65
2022/09/18 03:34:27;;;;;;;6.25;1.33;;;;;;;;;;4997190;28;20208;-65
2022/09/18 03:36:52;;;;;;;9.32;1.40;;;;;;;;;;5002175;28;20212;-65
2022/09/18 03:39:17;;;;;;;11.40;1.80;;;;;;;;;;5002881;28;20303;-65
2022/09/18 03:41:43;;;;;;;7.07;1.30;;;;;;;;;;5002774;28;20220;-65
2022/09/18 03:44:08;;;;;;;8.30;1.35;;;;;;;;;;5020470;28;20842;-66
2022/09/18 03:46:33;;;;;;;10.20;1.55;;;;;;;;;;5021966;28;20239;-65
2022/09/18 03:48:59;;;;;;;7.88;1.25;;;;;;;;;;5021382;28;20222;-66
2022/09/18 03:51:24;;;;;;;10.68;1.65;;;;;;;;;;5011777;28;20214;-66
2022/09/18 03:53:50;;;;;;;7.70;1.45;;;;;;;;;;4994781;28;20228;-66
2022/09/18 03:56:16;;;;;;;7.53;1.30;;;;;;;;;;4993899;28;20231;-65
2022/09/18 03:58:41;;;;;;;8.50;1.63;;;;;;;;;;5002054;28;20303;-66
2022/09/18 04:01:06;;;;;;;7.93;1.38;;;;;;;;;;5002153;28;20679;-66
2022/09/18 04:03:32;;;;;;;8.35;1.58;;;;;;;;;;5001855;28;20217;-66
2022/09/18 04:05:57;;;;;;;8.13;2.00;;;;;;;;;;5015546;28;20699;-66
2022/09/18 04:08:23;;;;;;;9.32;1.30;;;;;;;;;;5021507;28;20219;-66
2022/09/18 04:10:48;;;;;;;5.22;1.17;;;;;;;;;;5021527;28;20258;-66
2022/09/18 04:13:14;;;;;;;9.20;1.55;;;;;;;;;;5020688;28;20211;-65
2022/09/18 04:15:39;;;;;;;9.73;1.45;;;;;;;;;;5006661;28;20703;-66
2022/09/18 04:18:05;;;;;;;7.50;1.35;;;;;;;;;;4997011;28;20209;-66
2022/09/18 04:20:31;;;;;;;9.18;1.27;;;;;;;;;;5022004;28;21394;-66
2022/09/18 04:22:57;;;;;;;8.07;1.73;;;;;;;;;;5025632;28;20295;-66
2022/09/18 04:25:22;;;;;;;5.50;1.23;;;;;;;;;;5024327;28;20345;-67
2022/09/18 04:27:48;;;;;;;10.40;1.25;;;;;;;;;;5025404;28;20282;-66
2022/09/18 04:30:13;;;;;;;8.32;1.33;;;;;;;;;;5024744;28;20345;-66
2022/09/18 04:32:38;;;;;;;8.85;1.50;;;;;;;;;;5024875;28;20303;-66
2022/09/18 04:35:04;;;;;;;9.65;1.75;;;;;;;;;;5022386;28;20302;-66
2022/09/18 04:37:30;;;;;;;10.68;1.55;;;;;;;;;;5017478;28;20212;-66
2022/09/18 04:39:55;;;;;;;7.53;1.00;;;;;;;;;;5016080;28;20200;-66
2022/09/18 04:42:21;;;;;;;5.32;0.90;;;;;;;;;;5018615;28;20686;-66
2022/09/18 04:44:46;;;;;;;8.00;1.20;;;;;;;;;;5025304;28;20231;-66
2022/09/18 04:47:12;;;;;;;7.70;1.10;;;;;;;;;;5023750;28;20220;-67
2022/09/18 04:49:37;;;;;;;4.70;1.15;;;;;;;;;;5024815;28;20215;-66
2022/09/18 04:52:02;;;;;;;7.57;1.05;;;;;;;;;;5016744;28;20204;-67
2022/09/18 04:54:27;;;;;;;8.23;1.30;;;;;;;;;;5004835;28;20393;-67
2022/09/18 04:56:53;;;;;;;8.68;1.25;;;;;;;;;;5027639;28;20212;-66
2022/09/18 04:59:18;;;;;;;7.50;1.10;;;;;;;;;;5023964;28;20212;-66
2022/09/18 05:01:43;;;;;;;8.55;1.20;;;;;;;;;;5024998;28;20200;-69
2022/09/18 05:04:09;;;;;;;9.00;1.30;;;;;;;;;;5016562;28;20526;-65
2022/09/18 05:06:34;;;;;;;8.40;1.40;;;;;;;;;;5013837;28;20555;-63
2022/09/18 05:08:59;;;;;;;9.07;1.10;;;;;;;;;;5025072;28;20222;-64
2022/09/18 05:11:25;;;;;;;11.57;1.70;;;;;;;;;;5003396;28;20275;-66
2022/09/18 05:13:55;;;;;;;6.73;1.50;;;;;;;;;;5003200;28;20529;-63
2022/09/18 05:16:20;;;;;;;7.35;1.02;;;;;;;;;;5004873;28;20313;-63
2022/09/18 05:18:45;;;;;;;7.03;1.27;;;;;;;;;;5010761;28;20231;-62
2022/09/18 05:21:11;;;;;;;9.60;1.38;;;;;;;;;;5011120;28;20216;-63
2022/09/18 05:23:36;;;;;;;7.82;1.58;;;;;;;;;;5008953;28;20215;-63
2022/09/18 05:26:01;;;;;;;6.25;1.17;;;;;;;;;;5009907;28;20638;-63
2022/09/18 05:28:27;;;;;;;5.85;0.90;;;;;;;;;;5009234;28;20266;-62
2022/09/18 05:30:56;;;;;;;7.03;1.10;;;;;;;;;;5009816;28;20200;-63
2022/09/18 05:33:21;;;;;;;9.93;1.33;;;;;;;;;;5002173;28;20216;-63
2022/09/18 05:35:51;;;;;;;7.90;1.17;;;;;;;;;;5001583;28;20242;-62
2022/09/18 05:38:17;;;;;;;6.72;1.88;;;;;;;;;;5007518;28;20671;-64
2022/09/18 05:40:42;;;;;;;5.55;1.10;;;;;;;;;;5007427;28;20216;-64
2022/09/18 05:43:08;;;;;;;8.93;1.20;;;;;;;;;;5008080;28;20278;-64
2022/09/18 05:45:33;;;;;;;4.28;1.02;;;;;;;;;;5024014;28;20232;-65
2022/09/18 05:47:59;;;;;;;6.95;1.20;;;;;;;;;;5009053;28;20212;-64
2022/09/18 05:50:25;;;;;;;6.72;1.00;;;;;;;;;;5009965;28;20765;-66
2022/09/18 05:52:58;;;;;;;6.60;1.30;;;;;;;;;;5008088;28;20442;-69
2022/09/18 05:55:23;;;;;;;5.30;1.08;;;;;;;;;;5018373;28;20228;-65
2022/09/18 05:57:54;;;;;;;3.72;0.80;;;;;;;;;;5002264;28;20216;-67
2022/09/18 06:00:20;;;;;;;4.90;1.25;;;;;;;;;;5002496;28;20224;-66
2022/09/18 06:02:55;;;;;;;4.75;0.90;;;;;;;;;;5006935;28;20204;-67
2022/09/18 06:05:21;;;;;;;5.55;1.00;;;;;;;;;;5009434;28;20319;-67
2022/09/18 06:07:46;;;;;;;5.20;0.90;;;;;;;;;;5009386;28;20303;-66
2022/09/18 06:10:12;;;;;;;8.35;1.17;;;;;;;;;;4996666;28;20235;-67
2022/09/18 06:12:37;;;;;;;5.05;1.10;;;;;;;;;;4997500;28;20675;-66
2022/09/18 06:15:02;;;;;;;4.13;0.90;;;;;;;;;;5008173;28;20698;-67
2022/09/18 06:17:28;;;;;;;8.27;1.10;;;;;;;;;;5004927;28;20538;-65
2022/09/18 06:19:53;;;;;;;6.47;1.20;;;;;;;;;;5000998;28;20287;-66
2022/09/18 06:22:18;;;;;;;4.47;0.90;;;;;;;;;;5000845;28;20208;-65
2022/09/18 06:24:43;;;;;;;4.70;0.90;;;;;;;;;;5003777;28;20383;-66
2022/09/18 06:27:09;;;;;;;6.43;1.50;;;;;;;;;;5007302;28;20223;-67
2022/09/18 06:29:34;;;;;;;6.32;1.10;;;;;;;;;;5007496;28;20620;-66
2022/09/18 06:32:00;;;;;;;4.95;0.77;;;;;;;;;;5007076;28;20311;-65
2022/09/18 06:34:25;;;;;;;5.50;0.90;;;;;;;;;;5002578;28;20219;-66
2022/09/18 06:36:50;;;;;;;5.68;0.80;;;;;;;;;;5007280;28;20778;-69
2022/09/18 06:39:16;;;;;;;4.68;1.13;;;;;;;;;;5006109;28;20236;-68
2022/09/18 06:41:41;;;;;;;5.25;0.98;;;;;;;;;;5000026;28;20209;-67
2022/09/18 06:44:07;;;;;;;4.68;0.90;;;;;;;;;;5000254;28;20228;-71
2022/09/18 06:46:32;;;;;;;3.47;0.80;;;;;;;;;;5000669;28;20565;-68
2022/09/18 06:48:57;;;;;;;6.70;0.70;;;;;;;;;;5006840;28;20208;-67
2022/09/18 06:51:23;;;;;;;5.75;0.80;;;;;;;;;;5006954;28;20208;-70
2022/09/18 06:53:48;;;;;;;3.60;0.80;;;;;;;;;;5007113;28;20230;-70
2022/09/18 06:56:13;;;;;;;6.50;0.80;;;;;;;;;;5006884;28;20220;-67
2022/09/18 06:58:38;;;;;;;9.07;1.52;;;;;;;;;;5007392;28;20650;-69
2022/09/18 07:01:04;;;;;;;3.47;0.75;;;;;;;;;;5006054;28;20715;-65
2022/09/18 07:03:29;;;;;;;5.72;1.00;;;;;;;;;;5000820;28;20218;-66
2022/09/18 07:05:54;;;;;;;4.57;1.15;;;;;;;;;;4994476;28;20850;-66
2022/09/18 07:08:20;;;;;;;5.45;1.17;;;;;;;;;;5008817;28;20220;-65
2022/09/18 07:10:45;;;;;;;4.85;1.05;;;;;;;;;;4999594;28;20656;-65
2022/09/18 07:13:10;;;;;;;6.80;1.10;;;;;;;;;;5001329;28;20221;-65
2022/09/18 07:15:35;;;;;;;6.45;1.30;;;;;;;;;;5001234;28;20338;-65
2022/09/18 07:18:01;;;;;;;6.10;1.17;;;;;;;;;;5009328;28;20728;-65
2022/09/18 07:20:27;;;;;;;5.35;0.90;;;;;;;;;;5000370;28;20303;-65
2022/09/18 07:22:53;;;;;;;5.40;1.02;;;;;;;;;;5015856;28;20605;-65
2022/09/18 07:25:19;;;;;;;7.05;1.10;;;;;;;;;;5027958;28;20516;-64
2022/09/18 07:27:44;;;;;;;8.23;1.00;;;;;;;;;;5009224;28;20503;-64
2022/09/18 07:30:10;;;;;;;5.03;1.10;;;;;;;;;;5011920;28;20511;-64
2022/09/18 07:32:35;;;;;;;5.13;0.80;;;;;;;;;;5017037;28;20677;-64
2022/09/18 07:35:00;;;;;;;6.82;1.33;;;;;;;;;;5019097;28;20204;-64
2022/09/18 07:37:25;;;;;;;4.13;0.70;;;;;;;;;;5020292;28;20235;-64
2022/09/18 07:39:51;;;;;;;7.63;1.10;;;;;;;;;;5020438;28;20208;-64
2022/09/18 07:42:16;;;;;;;7.65;1.10;;;;;;;;;;5005055;28;20614;-64
2022/09/18 07:44:41;;;;;;;5.95;1.13;;;;;;;;;;4986666;28;20232;-64
2022/09/18 07:47:07;;;;;;;7.50;0.88;;;;;;;;;;5003434;28;20219;-64
2022/09/18 07:49:32;;;;;;;7.75;1.00;;;;;;;;;;5016287;28;20225;-64
2022/09/18 07:51:58;;;;;;;7.05;1.00;;;;;;;;;;5010421;28;20252;-64
2022/09/18 07:54:23;;;;;;;5.95;1.00;;;;;;;;;;4999111;28;20247;-64
2022/09/18 07:56:48;;;;;;;6.13;1.05;;;;;;;;;;5003945;28;20223;-64
2022/09/18 07:59:14;;;;;;;5.50;1.10;;;;;;;;;;5005146;28;20234;-64
2022/09/18 08:01:39;;;;;;;6.72;0.90;;;;;;;;;;5005427;28;20212;-63
2022/09/18 08:04:05;;;;;;;7.38;1.77;;;;;;;;;;5005627;28;20224;-64
2022/09/18 08:06:31;;;;;;;7.43;0.98;;;;;;;;;;5025079;28;20211;-64
2022/09/18 08:08:56;;;;;;;3.72;1.00;;;;;;;;;;5029532;28;20716;-64
2022/09/18 08:11:21;;;;;;;7.00;1.30;;;;;;;;;;5012426;28;20266;-64
2022/09/18 08:13:48;;;;;;;5.93;1.10;;;;;;;;;;5009968;28;20283;-65
2022/09/18 08:16:13;;;;;;;8.73;1.20;;;;;;;;;;5018414;28;20254;-65
2022/09/18 08:18:38;;;;;;;5.57;0.93;;;;;;;;;;5014391;28;20922;-66
2022/09/18 08:21:05;;;;;;;6.30;1.02;;;;;;;;;;5009070;28;20224;-65
2022/09/18 08:23:30;;;;;;;7.32;1.25;;;;;;;;;;5008723;28;20564;-64
2022/09/18 08:25:58;;;;;;;3.63;0.88;;;;;;;;;;5009287;28;20228;-64
2022/09/18 08:28:23;;;;;;;5.93;1.10;;;;;;;;;;5023938;28;20231;-65
2022/09/18 08:30:49;;;;;;;5.20;0.95;;;;;;;;;;5022770;28;20222;-64
2022/09/18 08:33:14;;;;;;;5.28;0.88;;;;;;;;;;5016516;28;20552;-65
2022/09/18 08:35:39;;;;;;;4.47;0.80;;;;;;;;;;5034936;28;20298;-66
2022/09/18 08:38:06;;;;;;;5.43;0.85;;;;;;;;;;5022657;28;20215;-65
2022/09/18 08:40:36;;;;;;;6.68;0.90;;;;;;;;;;5022116;28;20211;-65
2022/09/18 08:43:05;;;;;;;6.03;0.80;;;;;;;;;;5028472;28;20238;-65
2022/09/18 08:45:40;;;;;;;3.85;1.10;;;;;;;;;;5026606;28;20291;-65
2022/09/18 08:48:07;;;;;;;3.20;0.63;;;;;;;;;;5027377;28;20222;-65
2022/09/18 08:50:33;;;;;;;4.38;0.80;;;;;;;;;;5028998;28;20211;-65
2022/09/18 08:53:01;;;;;;;2.03;0.60;;;;;;;;;;5024787;28;20216;-65
2022/09/18 08:55:29;;;;;;;3.38;0.90;;;;;;;;;;5027891;28;20212;-65
2022/09/18 08:57:59;;;;;;;3.17;0.77;;;;;;;;;;5027362;28;20234;-65
2022/09/18 09:00:30;;;;;;;5.10;0.80;;;;;;;;;;5027939;28;20207;-65
2022/09/18 09:03:01;;;;;;;5.10;0.73;;;;;;;;;;5027482;28;20211;-65
2022/09/18 09:05:28;;;;;;;6.07;0.93;;;;;;;;;;5024133;28;20321;-65
2022/09/18 09:08:13;;;;;;;5.28;1.00;;;;;;;;;;5020804;28;20261;-65
2022/09/18 09:10:41;;;;;;;3.83;0.90;;;;;;;;;;5008873;28;20213;-64
2022/09/18 09:13:24;;;;;;;3.17;0.70;;;;;;;;;;5016754;28;20213;-65
2022/09/18 09:15:57;;;;;;;5.18;0.90;;;;;;;;;;5025897;28;20311;-63
2022/09/18 09:18:25;;;;;;;3.10;0.73;;;;;;;;;;5031889;28;20200;-63
2022/09/18 09:20:53;;;;;;;4.80;0.70;;;;;;;;;;5026858;28;20653;-63
2022/09/18 09:23:21;;;;;;;5.75;0.88;;;;;;;;;;5024727;28;20740;-63
2022/09/18 09:25:51;;;;;;;3.83;0.90;;;;;;;;;;5027724;28;20310;-64
2022/09/18 09:28:18;;;;;;;3.20;0.80;;;;;;;;;;5024402;28;20550;-64
2022/09/18 09:30:44;;;;;;;4.00;0.90;;;;;;;;;;5008424;28;20494;-64
2022/09/18 09:33:24;;;;;;;3.58;1.00;;;;;;;;;;5007510;28;20220;-64
2022/09/18 09:35:50;;;;;;;4.05;0.90;;;;;;;;;;5020694;28;20220;-65
2022/09/18 09:38:16;;;;;;;3.65;0.80;;;;;;;;;;5017273;28;20204;-65
2022/09/18 09:40:43;;;;;;;3.67;0.90;;;;;;;;;;5004952;28;20208;-65
2022/09/18 09:43:18;;;;;;;5.07;1.15;;;;;;;;;;4999680;28;20231;-65
2022/09/18 09:45:45;;;;;;;3.35;0.90;;;;;;;;;;5015878;28;20677;-66
2022/09/18 09:48:16;;;;;;;4.70;0.90;;;;;;;;;;4996334;28;20266;-66
2022/09/18 09:50:44;;;;;;;4.60;1.30;;;;;;;;;;5004684;28;20218;-66
2022/09/18 09:53:10;;;;;;;4.00;0.85;;;;;;;;;;5023138;28;20208;-66
2022/09/18 09:55:43;;;;;;;5.93;1.60;;;;;;;;;;5018128;28;20734;-66
2022/09/18 09:58:08;;;;;;;3.95;1.45;;;;;;;;;;5007059;28;20200;-65
2022/09/18 10:00:38;;;;;;;5.65;0.90;;;;;;;;;;5006621;28;20220;-66
2022/09/18 10:03:19;;;;;;;6.07;1.75;;;;;;;;;;5014120;28;20286;-66
2022/09/18 10:05:50;;;;;;;5.97;1.23;;;;;;;;;;5008946;28;20264;-66
2022/09/18 10:08:24;;;;;;;3.28;1.38;;;;;;;;;;5008443;28;20619;-66
2022/09/18 10:10:52;;;;;;;5.05;1.40;;;;;;;;;;4997792;28;20216;-66
2022/09/18 10:13:22;;;;;;;3.83;1.15;;;;;;;;;;5020722;28;20438;-66
2022/09/18 10:15:49;;;;;;;5.97;1.13;;;;;;;;;;5025631;28;20227;-66
2022/09/18 10:18:21;;;;;;;4.05;1.00;;;;;;;;;;5016658;28;20227;-66
2022/09/18 10:20:47;;;;;;;6.20;1.20;;;;;;;;;;5021044;28;20455;-66
2022/09/18 10:23:14;;;;;;;3.88;1.02;;;;;;;;;;5035078;28;20223;-66
2022/09/18 10:25:40;;;;;;;4.20;0.80;;;;;;;;;;5036009;28;20219;-66
2022/09/18 10:28:09;;;;;;;6.00;1.13;;;;;;;;;;5012862;28;20620;-66
2022/09/18 10:30:36;;;;;;;4.28;1.00;;;;;;;;;;5029418;28;20218;-66
2022/09/18 10:33:01;;;;;;;4.38;1.10;;;;;;;;;;5011851;28;20223;-66
2022/09/18 10:35:28;;;;;;;3.30;0.95;;;;;;;;;;5002089;28;20204;-66
2022/09/18 10:37:53;;;;;;;4.45;0.90;;;;;;;;;;5000930;28;20219;-68
2022/09/18 10:40:28;;;;;;;5.78;1.50;;;;;;;;;;5001654;28;20216;-66
2022/09/18 10:42:54;;;;;;;3.92;0.75;;;;;;;;;;5010780;28;20235;-67
2022/09/18 10:45:20;;;;;;;3.65;0.90;;;;;;;;;;5000759;28;21139;-67
2022/09/18 10:47:45;;;;;;;4.40;1.00;;;;;;;;;;5000740;28;20207;-67
2022/09/18 10:50:10;;;;;;;3.60;0.90;;;;;;;;;;4994614;28;20231;-68
2022/09/18 10:52:42;;;;;;;5.30;0.90;;;;;;;;;;4995684;28;20278;-66
2022/09/18 10:55:11;;;;;;;6.55;1.25;;;;;;;;;;4997802;28;20270;-67
2022/09/18 10:57:39;;;;;;;4.95;1.02;;;;;;;;;;5009785;28;20207;-67
2022/09/18 11:00:10;;;;;;;13.88;6.88;;;;;;;;;;5032197;28;20454;-66
2022/09/18 11:02:39;;;;;;;48.58;31.25;;;;;;;;;;5004618;28;20217;-67
2022/09/18 11:05:13;;;;;;;7.80;2.80;;;;;;;;;;5017704;28;20705;-67
2022/09/18 11:07:44;;;;;;;5.25;1.02;;;;;;;;;;5001967;28;20691;-67
2022/09/18 11:10:14;;;;;;;6.25;1.98;;;;;;;;;;5035112;28;20212;-69
2022/09/18 11:12:39;;;;;;;5.32;1.02;;;;;;;;;;5029049;28;20610;-66
2022/09/18 11:15:06;;;;;;;4.82;0.90;;;;;;;;;;5010404;28;20617;-66
2022/09/18 11:17:32;;;;;;;4.50;0.98;;;;;;;;;;4996766;28;20240;-66
2022/09/18 11:19:58;;;;;;;6.03;0.90;;;;;;;;;;5015383;28;20621;-65
2022/09/18 11:22:30;;;;;;;7.28;0.90;;;;;;;;;;5019054;28;20659;-65
2022/09/18 11:25:14;;;;;;;4.15;0.73;;;;;;;;;;5021959;28;20578;-65
2022/09/18 11:27:44;;;;;;;5.55;1.02;;;;;;;;;;5019413;28;20302;-65
2022/09/18 11:30:15;;;;;;;5.10;1.00;;;;;;;;;;5023278;28;20737;-66
2022/09/18 11:32:42;;;;;;;5.50;1.65;;;;;;;;;;5002079;28;20215;-65
2022/09/18 11:35:12;;;;;;;11.40;7.47;;;;;;;;;;5009828;28;20317;-65
2022/09/18 11:37:38;;;;;;;6.85;3.38;;;;;;;;;;4994518;28;20214;-65
2022/09/18 11:40:06;;;;;;;15.13;9.93;;;;;;;;;;4994679;28;20254;-64
2022/09/18 11:42:31;;;;;;;8.85;3.55;;;;;;;;;;5013944;28;20325;-65
2022/09/18 11:45:10;;;;;;;9.45;4.53;;;;;;;;;;5001008;28;20693;-65
2022/09/18 11:47:38;;;;;;;14.48;7.63;;;;;;;;;;5034088;28;20269;-65
2022/09/18 11:50:10;;;;;;;6.85;1.92;;;;;;;;;;5034819;28;20203;-64
2022/09/18 11:52:40;;;;;;;5.57;2.05;;;;;;;;;;5004968;28;20278;-65
2022/09/18 11:55:09;;;;;;;7.47;1.40;;;;;;;;;;5019724;28;20625;-65
2022/09/18 11:57:36;;;;;;;5.38;1.40;;;;;;;;;;4995606;28;20517;-65
2022/09/18 12:00:06;;;;;;;11.75;6.90;;;;;;;;;;5027793;28;20532;-65
2022/09/18 12:02:40;;;;;;;13.82;7.60;;;;;;;;;;5028364;28;20337;-65
2022/09/18 12:05:17;;;;;;;8.38;4.35;;;;;;;;;;5030951;28;20238;-65
2022/09/18 12:07:44;;;;;;;3.65;1.30;;;;;;;;;;5019774;28;20284;-65
2022/09/18 12:10:15;;;;;;;6.43;2.33;;;;;;;;;;5018894;28;20758;-65
2022/09/18 12:12:43;;;;;;;6.63;1.20;;;;;;;;;;5032035;28;20215;-66
2022/09/18 12:15:17;;;;;;;6.05;0.98;;;;;;;;;;5013428;28;20244;-66
2022/09/18 12:17:55;;;;;;;8.23;1.70;;;;;;;;;;5002410;28;20224;-65
2022/09/18 12:20:27;;;;;;;10.43;1.55;;;;;;;;;;5014661;28;20244;-66
2022/09/18 12:22:53;;;;;;;4.43;0.95;;;;;;;;;;5027747;28;20212;-66
2022/09/18 12:25:18;;;;;;;5.18;0.90;;;;;;;;;;5028929;28;20478;-65
2022/09/18 12:27:47;;;;;;;5.85;1.08;;;;;;;;;;5009628;28;20212;-66
2022/09/18 12:30:13;;;;;;;5.70;1.00;;;;;;;;;;5034442;28;20772;-70
2022/09/18 12:32:42;;;;;;;6.35;1.00;;;;;;;;;;5021798;28;20211;-66
2022/09/18 12:35:14;;;;;;;3.00;0.68;;;;;;;;;;5038666;28;20550;-66
2022/09/18 12:37:45;;;;;;;4.97;0.90;;;;;;;;;;5013544;28;20305;-67
2022/09/18 12:40:17;;;;;;;6.45;1.25;;;;;;;;;;5038435;28;20690;-66
2022/09/18 12:42:44;;;;;;;5.80;1.30;;;;;;;;;;5025468;28;20559;-65
2022/09/18 12:45:27;;;;;;;5.63;1.58;;;;;;;;;;5015756;28;20227;-65
2022/09/18 12:48:06;;;;;;;3.85;0.80;;;;;;;;;;5032469;28;20686;-64
2022/09/18 12:50:38;;;;;;;4.95;0.80;;;;;;;;;;5021206;28;20208;-65
2022/09/18 12:53:13;;;;;;;2.83;0.77;;;;;;;;;;5007313;28;20208;-65
2022/09/18 12:55:43;;;;;;;4.25;1.00;;;;;;;;;;5022899;28;20218;-63
2022/09/18 12:58:32;;;;;;;5.13;0.98;;;;;;;;;;5022148;28;20224;-64
2022/09/18 13:00:58;;;;;;;3.90;0.75;;;;;;;;;;5023127;28;20898;-65
2022/09/18 13:03:26;;;;;;;5.68;0.70;;;;;;;;;;5022341;28;20221;-65
2022/09/18 13:05:57;;;;;;;5.72;0.77;;;;;;;;;;5009184;28;20751;-65
2022/09/18 13:08:25;;;;;;;5.05;0.88;;;;;;;;;;5030725;28;20231;-65
2022/09/18 13:10:51;;;;;;;4.68;0.70;;;;;;;;;;5017487;28;20254;-64
2022/09/18 13:13:22;;;;;;;8.88;1.05;;;;;;;;;;5020095;28;20786;-64
2022/09/18 13:16:04;;;;;;;5.88;1.05;;;;;;;;;;5012143;28;20220;-64
2022/09/18 13:18:47;;;;;;;4.97;0.90;;;;;;;;;;5003784;28;20748;-64
2022/09/18 13:21:17;;;;;;;6.47;1.13;;;;;;;;;;5038334;28;20648;-64
2022/09/18 13:23:43;;;;;;;6.53;1.63;;;;;;;;;;5030722;28;20601;-64
2022/09/18 13:26:09;;;;;;;8.00;1.33;;;;;;;;;;5003059;28;20806;-65
2022/09/18 13:28:35;;;;;;;7.50;1.38;;;;;;;;;;5012358;28;20735;-65
2022/09/18 13:31:18;;;;;;;7.57;1.45;;;;;;;;;;4996912;28;20551;-63
2022/09/18 13:33:49;;;;;;;5.75;1.38;;;;;;;;;;5031098;28;20214;-63
2022/09/18 13:36:20;;;;;;;8.30;1.60;;;;;;;;;;5021219;28;20524;-62
2022/09/18 13:38:45;;;;;;;12.38;5.65;;;;;;;;;;5037356;28;20762;-62
2022/09/18 13:41:11;;;;;;;5.10;0.98;;;;;;;;;;5020417;28;20212;-62
2022/09/18 13:43:37;;;;;;;4.57;1.30;;;;;;;;;;5005240;28;20564;-63
2022/09/18 13:46:03;;;;;;;7.95;3.65;;;;;;;;;;5017267;28;20228;-63
2022/09/18 13:48:31;;;;;;;4.60;1.15;;;;;;;;;;5017031;28;20216;-64
2022/09/18 13:51:03;;;;;;;3.28;0.90;;;;;;;;;;5031793;28;20204;-64
2022/09/18 13:53:31;;;;;;;7.20;1.90;;;;;;;;;;4996394;28;20205;-65
2022/09/18 13:55:56;;;;;;;3.17;1.00;;;;;;;;;;5011904;28;20715;-65
2022/09/18 13:58:31;;;;;;;14.43;8.65;;;;;;;;;;5000805;28;20251;-65
2022/09/18 14:00:57;;;;;;;7.20;3.35;;;;;;;;;;5020707;28;20234;-65
2022/09/18 14:03:22;;;;;;;5.18;1.77;;;;;;;;;;5036230;28;20715;-65
2022/09/18 14:05:47;;;;;;;4.55;1.33;;;;;;;;;;5014045;28;20224;-66
2022/09/18 14:08:14;;;;;;;3.13;0.80;;;;;;;;;;5001496;28;20220;-65
2022/09/18 14:10:43;;;;;;;3.50;0.70;;;;;;;;;;5002558;28;20213;-65
2022/09/18 14:13:13;;;;;;;8.23;2.25;;;;;;;;;;5016767;28;20219;-65
2022/09/18 14:15:38;;;;;;;4.13;1.60;;;;;;;;;;5003169;28;20556;-65
2022/09/18 14:18:05;;;;;;;5.82;1.00;;;;;;;;;;4995878;28;20627;-65
2022/09/18 14:20:31;;;;;;;5.65;2.80;;;;;;;;;;5014919;28;20803;-64
2022/09/18 14:23:00;;;;;;;36.80;30.90;;;;;;;;;;5002368;28;20291;-66
2022/09/18 14:25:48;;;;;;;4.97;1.17;;;;;;;;;;5005053;28;20232;-66
2022/09/18 14:28:15;;;;;;;6.35;1.50;;;;;;;;;;5020237;28;20218;-66
2022/09/18 14:30:40;;;;;;;7.43;3.20;;;;;;;;;;5021086;28;20243;-67
2022/09/18 14:33:06;;;;;;;3.90;0.88;;;;;;;;;;5019315;28;20322;-66
2022/09/18 14:35:46;;;;;;;4.55;1.35;;;;;;;;;;5018155;28;20283;-66
2022/09/18 14:38:16;;;;;;;4.13;1.85;;;;;;;;;;5006036;28;20208;-67
2022/09/18 14:40:42;;;;;;;3.70;1.05;;;;;;;;;;5015137;28;20326;-65
2022/09/18 14:43:14;;;;;;;6.53;2.00;;;;;;;;;;5019900;28;20582;-66